Connexion S'enregistrer

Connexion à votre compte

Identifiant
Mot de passe
Maintenir la connexion active sur ce site

Créer un compte

Pour valider ce formulaire, vous devez remplir tous les champs.
Nom
Identifiant
Mot de passe
Répétez le mot de passe
Adresse e-mail
Répétez l'adresse e-mail

Nous contacter

 Téléphone : +33 (0)4 79 54 41 81

Coordonnées détaillées et accès : cliquez ici

 
LFLB °C
    Ferienhaus Ostsee
[source: ADDS]
METAR
LFLB 210130Z AUTO 15003KT 8000 OVC045 M01/M02 Q1016 =
TAF LFLB 201700Z 2018/2118 VRB02KT 9999 SCT060 BKN080 BECMG 2021/2024 36007KT
TAF
TAF LFLB 201700Z 2018/2118 VRB02KT 9999 SCT060 BKN080 BECMG 2021/2024 36007KT =
SR / SS: 07:09 / 16:26 UTC (Lever/Coucher du soleil le 2019-01-21)
JSN Boot template designed by JoomlaShine.com